sensor_id;sensor_type;location;lat;lon;timestamp;pressure;altitude;pressure_sealevel;temperature;humidity
16331;BME280;8275;48.206;16.340;2023-07-20T00:00:42;98573.59;;;28.15;31.73
16331;BME280;8275;48.206;16.340;2023-07-20T00:03:12;98575.59;;;28.15;31.53
16331;BME280;8275;48.206;16.340;2023-07-20T00:05:44;98584.84;;;28.15;31.52
16331;BME280;8275;48.206;16.340;2023-07-20T00:08:12;98569.94;;;28.15;31.53
16331;BME280;8275;48.206;16.340;2023-07-20T00:10:41;98562.69;;;28.14;31.48
16331;BME280;8275;48.206;16.340;2023-07-20T00:13:12;98559.88;;;28.14;32.00
16331;BME280;8275;48.206;16.340;2023-07-20T00:15:43;98554.63;;;28.12;31.92
16331;BME280;8275;48.206;16.340;2023-07-20T00:18:11;98556.28;;;28.13;31.55
16331;BME280;8275;48.206;16.340;2023-07-20T00:20:40;98559.09;;;28.13;31.64
16331;BME280;8275;48.206;16.340;2023-07-20T00:23:09;98568.72;;;28.12;32.04
16331;BME280;8275;48.206;16.340;2023-07-20T00:25:38;98566.72;;;28.13;31.71
16331;BME280;8275;48.206;16.340;2023-07-20T00:28:06;98570.34;;;28.13;31.76
16331;BME280;8275;48.206;16.340;2023-07-20T00:30:38;98575.97;;;28.13;31.58
16331;BME280;8275;48.206;16.340;2023-07-20T00:33:10;98579.59;;;28.14;31.87
16331;BME280;8275;48.206;16.340;2023-07-20T00:35:39;98581.22;;;28.15;31.44
16331;BME280;8275;48.206;16.340;2023-07-20T00:38:07;98588.44;;;28.16;31.52
16331;BME280;8275;48.206;16.340;2023-07-20T00:40:36;98589.25;;;28.16;31.73
16331;BME280;8275;48.206;16.340;2023-07-20T00:43:05;98590.09;;;28.17;32.18
16331;BME280;8275;48.206;16.340;2023-07-20T00:45:36;98592.91;;;28.17;32.24
16331;BME280;8275;48.206;16.340;2023-07-20T00:48:06;98606.97;;;28.17;32.48
16331;BME280;8275;48.206;16.340;2023-07-20T00:50:35;98605.78;;;28.18;32.57
16331;BME280;8275;48.206;16.340;2023-07-20T00:53:04;98609.78;;;28.17;32.28
16331;BME280;8275;48.206;16.340;2023-07-20T00:55:33;98616.25;;;28.17;32.94
16331;BME280;8275;48.206;16.340;2023-07-20T00:58:02;98612.22;;;28.18;33.13
16331;BME280;8275;48.206;16.340;2023-07-20T01:00:31;98607.03;;;28.20;33.19
16331;BME280;8275;48.206;16.340;2023-07-20T01:03:01;98601.81;;;28.22;33.37
16331;BME280;8275;48.206;16.340;2023-07-20T01:05:40;98595.78;;;28.24;33.23
16331;BME280;8275;48.206;16.340;2023-07-20T01:08:15;98588.56;;;28.30;33.04
16331;BME280;8275;48.206;16.340;2023-07-20T01:10:51;98578.16;;;28.34;33.19
16331;BME280;8275;48.206;16.340;2023-07-20T01:13:22;98574.19;;;28.42;33.88
16331;BME280;8275;48.206;16.340;2023-07-20T01:15:56;98570.97;;;28.43;33.44
16331;BME280;8275;48.206;16.340;2023-07-20T01:18:28;98581.06;;;28.48;33.64
16331;BME280;8275;48.206;16.340;2023-07-20T01:21:01;98581.88;;;28.48;33.19
16331;BME280;8275;48.206;16.340;2023-07-20T01:30:48;98580.13;;;28.30;32.88
16331;BME280;8275;48.206;16.340;2023-07-20T01:33:21;98579.75;;;28.31;32.81
16331;BME280;8275;48.206;16.340;2023-07-20T01:35:55;98584.53;;;28.27;32.91
16331;BME280;8275;48.206;16.340;2023-07-20T01:38:25;98584.94;;;28.26;33.03
16331;BME280;8275;48.206;16.340;2023-07-20T01:40:54;98579.28;;;28.22;32.77
16331;BME280;8275;48.206;16.340;2023-07-20T01:43:23;98582.88;;;28.19;32.89
16331;BME280;8275;48.206;16.340;2023-07-20T01:45:51;98596.13;;;28.15;33.29
16331;BME280;8275;48.206;16.340;2023-07-20T01:48:21;98593.25;;;28.12;33.38
16331;BME280;8275;48.206;16.340;2023-07-20T01:50:50;98590.78;;;28.07;32.90
16331;BME280;8275;48.206;16.340;2023-07-20T01:53:19;98583.50;;;28.02;33.07
16331;BME280;8275;48.206;16.340;2023-07-20T01:55:47;98576.19;;;27.98;33.59
16331;BME280;8275;48.206;16.340;2023-07-20T01:58:16;98570.53;;;27.94;33.63
16331;BME280;8275;48.206;16.340;2023-07-20T02:00:45;98578.94;;;27.91;33.24
16331;BME280;8275;48.206;16.340;2023-07-20T02:03:13;98580.91;;;27.87;33.98
16331;BME280;8275;48.206;16.340;2023-07-20T02:05:44;98590.13;;;27.83;33.85
16331;BME280;8275;48.206;16.340;2023-07-20T02:08:12;98593.75;;;27.84;33.99
16331;BME280;8275;48.206;16.340;2023-07-20T02:10:41;98592.50;;;27.81;34.21
16331;BME280;8275;48.206;16.340;2023-07-20T02:13:09;98603.00;;;27.81;33.73
16331;BME280;8275;48.206;16.340;2023-07-20T02:15:38;98598.16;;;27.81;34.13
16331;BME280;8275;48.206;16.340;2023-07-20T02:18:07;98611.03;;;27.82;34.04
16331;BME280;8275;48.206;16.340;2023-07-20T02:20:36;98609.81;;;27.83;34.33
16331;BME280;8275;48.206;16.340;2023-07-20T02:23:10;98615.84;;;27.82;34.24
16331;BME280;8275;48.206;16.340;2023-07-20T02:25:39;98621.09;;;27.83;34.27
16331;BME280;8275;48.206;16.340;2023-07-20T02:28:08;98615.84;;;27.82;34.41
16331;BME280;8275;48.206;16.340;2023-07-20T02:30:38;98618.25;;;27.80;34.06
16331;BME280;8275;48.206;16.340;2023-07-20T02:33:07;98619.44;;;27.79;34.25
16331;BME280;8275;48.206;16.340;2023-07-20T02:35:36;98623.47;;;27.78;34.14
16331;BME280;8275;48.206;16.340;2023-07-20T02:38:06;98620.22;;;27.76;34.15
16331;BME280;8275;48.206;16.340;2023-07-20T02:40:35;98622.63;;;27.74;34.39
16331;BME280;8275;48.206;16.340;2023-07-20T02:43:03;98627.00;;;27.71;34.28
16331;BME280;8275;48.206;16.340;2023-07-20T02:45:32;98630.59;;;27.68;34.10
16331;BME280;8275;48.206;16.340;2023-07-20T02:48:00;98647.03;;;27.66;34.24
16331;BME280;8275;48.206;16.340;2023-07-20T02:50:30;98657.47;;;27.62;34.57
16331;BME280;8275;48.206;16.340;2023-07-20T02:52:58;98645.78;;;27.60;34.20
16331;BME280;8275;48.206;16.340;2023-07-20T02:55:28;98659.78;;;27.57;34.53
16331;BME280;8275;48.206;16.340;2023-07-20T02:57:57;98655.75;;;27.54;34.91
16331;BME280;8275;48.206;16.340;2023-07-20T03:00:25;98655.31;;;27.52;34.54
16331;BME280;8275;48.206;16.340;2023-07-20T03:02:54;98654.06;;;27.50;34.99
16331;BME280;8275;48.206;16.340;2023-07-20T03:05:23;98657.63;;;27.47;34.77
16331;BME280;8275;48.206;16.340;2023-07-20T03:07:56;98660.03;;;27.45;35.35
16331;BME280;8275;48.206;16.340;2023-07-20T03:10:24;98668.88;;;27.43;35.25
16331;BME280;8275;48.206;16.340;2023-07-20T03:12:54;98678.88;;;27.41;35.42
16331;BME280;8275;48.206;16.340;2023-07-20T03:15:23;98683.69;;;27.40;35.60
16331;BME280;8275;48.206;16.340;2023-07-20T03:17:51;98684.06;;;27.39;35.48
16331;BME280;8275;48.206;16.340;2023-07-20T03:20:20;98697.31;;;27.38;35.58
16331;BME280;8275;48.206;16.340;2023-07-20T03:22:48;98700.13;;;27.38;35.09
16331;BME280;8275;48.206;16.340;2023-07-20T03:25:17;98698.97;;;27.39;35.46
16331;BME280;8275;48.206;16.340;2023-07-20T03:27:46;98693.69;;;27.38;35.07
16331;BME280;8275;48.206;16.340;2023-07-20T03:30:16;98696.06;;;27.36;35.57
16331;BME280;8275;48.206;16.340;2023-07-20T03:32:45;98698.03;;;27.35;35.03
16331;BME280;8275;48.206;16.340;2023-07-20T03:35:14;98707.31;;;27.36;35.02
16331;BME280;8275;48.206;16.340;2023-07-20T03:37:43;98710.94;;;27.36;35.52
16331;BME280;8275;48.206;16.340;2023-07-20T03:40:12;98710.56;;;27.38;35.36
16331;BME280;8275;48.206;16.340;2023-07-20T03:42:41;98711.81;;;27.40;35.33
16331;BME280;8275;48.206;16.340;2023-07-20T03:45:12;98724.31;;;27.43;35.28
16331;BME280;8275;48.206;16.340;2023-07-20T03:47:42;98722.34;;;27.47;35.18
16331;BME280;8275;48.206;16.340;2023-07-20T03:50:12;98713.16;;;27.50;34.96
16331;BME280;8275;48.206;16.340;2023-07-20T03:52:40;98725.25;;;27.54;35.07
16331;BME280;8275;48.206;16.340;2023-07-20T03:55:10;98713.66;;;27.55;35.06
16331;BME280;8275;48.206;16.340;2023-07-20T03:57:38;98719.69;;;27.57;35.23
16331;BME280;8275;48.206;16.340;2023-07-20T04:00:09;98728.19;;;27.61;35.45
16331;BME280;8275;48.206;16.340;2023-07-20T04:02:39;98723.03;;;27.66;35.54
16331;BME280;8275;48.206;16.340;2023-07-20T04:05:10;98718.25;;;27.70;35.11
16331;BME280;8275;48.206;16.340;2023-07-20T04:07:39;98730.81;;;27.76;35.46
16331;BME280;8275;48.206;16.340;2023-07-20T04:10:08;98740.94;;;27.81;34.99
16331;BME280;8275;48.206;16.340;2023-07-20T04:12:37;98738.56;;;27.87;35.00
16331;BME280;8275;48.206;16.340;2023-07-20T04:15:07;98744.69;;;27.92;35.33
16331;BME280;8275;48.206;16.340;2023-07-20T04:17:36;98751.16;;;27.96;35.49
16331;BME280;8275;48.206;16.340;2023-07-20T04:20:07;98762.84;;;27.98;35.62
16331;BME280;8275;48.206;16.340;2023-07-20T04:22:37;98756.47;;;28.01;35.56
16331;BME280;8275;48.206;16.340;2023-07-20T04:25:07;98756.91;;;28.03;35.63
16331;BME280;8275;48.206;16.340;2023-07-20T04:27:37;98757.31;;;28.05;35.10
16331;BME280;8275;48.206;16.340;2023-07-20T04:30:08;98760.53;;;28.04;35.30
16331;BME280;8275;48.206;16.340;2023-07-20T04:32:37;98767.78;;;28.05;36.02
16331;BME280;8275;48.206;16.340;2023-07-20T04:35:18;98763.72;;;28.02;35.87
16331;BME280;8275;48.206;16.340;2023-07-20T04:37:48;98768.59;;;28.05;35.91
16331;BME280;8275;48.206;16.340;2023-07-20T04:40:17;98776.22;;;28.05;35.83
16331;BME280;8275;48.206;16.340;2023-07-20T04:42:45;98771.38;;;28.02;35.66
16331;BME280;8275;48.206;16.340;2023-07-20T04:45:14;98770.94;;;28.00;36.04
16331;BME280;8275;48.206;16.340;2023-07-20T04:47:42;98766.94;;;28.01;35.86
16331;BME280;8275;48.206;16.340;2023-07-20T04:50:11;98759.31;;;28.01;36.41
16331;BME280;8275;48.206;16.340;2023-07-20T04:52:39;98772.97;;;28.03;36.43
16331;BME280;8275;48.206;16.340;2023-07-20T04:55:11;98763.72;;;28.02;35.92
16331;BME280;8275;48.206;16.340;2023-07-20T04:57:39;98764.97;;;28.05;36.28
16331;BME280;8275;48.206;16.340;2023-07-20T05:00:09;98769.34;;;28.02;36.37
16331;BME280;8275;48.206;16.340;2023-07-20T05:02:38;98772.16;;;28.02;36.57
16331;BME280;8275;48.206;16.340;2023-07-20T05:05:07;98769.00;;;28.07;36.14
16331;BME280;8275;48.206;16.340;2023-07-20T05:07:36;98770.84;;;28.26;36.30
16331;BME280;8275;48.206;16.340;2023-07-20T05:10:06;98771.78;;;28.37;36.24
16331;BME280;8275;48.206;16.340;2023-07-20T05:12:37;98775.91;;;28.46;36.02
16331;BME280;8275;48.206;16.340;2023-07-20T05:15:06;98780.78;;;28.49;35.92
16331;BME280;8275;48.206;16.340;2023-07-20T05:17:35;98774.91;;;28.62;36.03
16331;BME280;8275;48.206;16.340;2023-07-20T05:20:05;98778.19;;;28.71;35.45
16331;BME280;8275;48.206;16.340;2023-07-20T05:22:33;98787.50;;;28.75;35.93
16331;BME280;8275;48.206;16.340;2023-07-20T05:25:02;98785.78;;;28.67;35.78
16331;BME280;8275;48.206;16.340;2023-07-20T05:27:31;98781.03;;;28.71;35.54
16331;BME280;8275;48.206;16.340;2023-07-20T05:30:01;98790.03;;;28.87;35.29
16331;BME280;8275;48.206;16.340;2023-07-20T05:32:30;98778.03;;;28.97;35.24
16331;BME280;8275;48.206;16.340;2023-07-20T05:34:59;98784.06;;;28.99;35.53
16331;BME280;8275;48.206;16.340;2023-07-20T05:37:27;98782.06;;;28.96;35.37
16331;BME280;8275;48.206;16.340;2023-07-20T05:39:57;98784.06;;;28.99;35.49
16331;BME280;8275;48.206;16.340;2023-07-20T05:42:25;98787.34;;;29.04;35.54
16331;BME280;8275;48.206;16.340;2023-07-20T05:44:54;98798.28;;;29.09;35.48
16331;BME280;8275;48.206;16.340;2023-07-20T05:47:24;98794.28;;;29.14;35.37
16331;BME280;8275;48.206;16.340;2023-07-20T05:49:52;98798.78;;;29.18;35.11
16331;BME280;8275;48.206;16.340;2023-07-20T05:52:21;98791.94;;;29.19;35.27
16331;BME280;8275;48.206;16.340;2023-07-20T05:54:49;98792.38;;;29.22;35.29
16331;BME280;8275;48.206;16.340;2023-07-20T05:57:18;98792.00;;;29.27;35.02
16331;BME280;8275;48.206;16.340;2023-07-20T05:59:46;98794.44;;;29.28;34.91
16331;BME280;8275;48.206;16.340;2023-07-20T06:02:15;98792.81;;;29.27;35.03
16331;BME280;8275;48.206;16.340;2023-07-20T06:04:45;98792.00;;;29.27;34.97
16331;BME280;8275;48.206;16.340;2023-07-20T06:07:14;98796.44;;;29.28;35.09
16331;BME280;8275;48.206;16.340;2023-07-20T06:09:42;98802.91;;;29.28;34.97
16331;BME280;8275;48.206;16.340;2023-07-20T06:12:11;98804.50;;;29.29;34.64
16331;BME280;8275;48.206;16.340;2023-07-20T06:14:39;98802.50;;;29.30;34.26
16331;BME280;8275;48.206;16.340;2023-07-20T06:17:08;98796.44;;;29.31;34.58
16331;BME280;8275;48.206;16.340;2023-07-20T06:19:37;98797.28;;;29.32;34.29
16331;BME280;8275;48.206;16.340;2023-07-20T06:22:07;98798.91;;;29.36;34.22
16331;BME280;8275;48.206;16.340;2023-07-20T06:24:35;98791.31;;;29.44;34.15
16331;BME280;8275;48.206;16.340;2023-07-20T06:27:05;98797.44;;;29.53;34.01
16331;BME280;8275;48.206;16.340;2023-07-20T06:29:34;98792.66;;;29.60;33.60
16331;BME280;8275;48.206;16.340;2023-07-20T06:32:03;98796.69;;;29.66;33.72
16331;BME280;8275;48.206;16.340;2023-07-20T06:34:31;98796.34;;;29.71;33.58
16331;BME280;8275;48.206;16.340;2023-07-20T06:37:05;98809.75;;;29.81;33.49
16331;BME280;8275;48.206;16.340;2023-07-20T06:39:34;98806.56;;;29.94;33.20
16331;BME280;8275;48.206;16.340;2023-07-20T06:42:06;98808.63;;;30.07;33.21
16331;BME280;8275;48.206;16.340;2023-07-20T06:44:35;98810.72;;;30.21;32.75
16331;BME280;8275;48.206;16.340;2023-07-20T06:47:04;98804.69;;;30.26;32.12
16331;BME280;8275;48.206;16.340;2023-07-20T06:49:32;98804.34;;;30.34;32.18
16331;BME280;8275;48.206;16.340;2023-07-20T06:52:01;98812.44;;;30.39;32.06
16331;BME280;8275;48.206;16.340;2023-07-20T06:54:31;98812.84;;;30.38;31.69
16331;BME280;8275;48.206;16.340;2023-07-20T06:57:05;98812.03;;;30.41;31.89
16331;BME280;8275;48.206;16.340;2023-07-20T06:59:36;98800.75;;;30.48;31.81
16331;BME280;8275;48.206;16.340;2023-07-20T07:02:08;98798.75;;;30.55;31.76
16331;BME280;8275;48.206;16.340;2023-07-20T07:04:39;98800.78;;;30.66;31.71
16331;BME280;8275;48.206;16.340;2023-07-20T07:07:08;98798.78;;;30.73;31.81
16331;BME280;8275;48.206;16.340;2023-07-20T07:09:38;98800.81;;;30.76;31.70
16331;BME280;8275;48.206;16.340;2023-07-20T07:12:08;98803.63;;;30.76;31.78
16331;BME280;8275;48.206;16.340;2023-07-20T07:14:37;98801.22;;;30.85;31.80
16331;BME280;8275;48.206;16.340;2023-07-20T07:17:05;98803.72;;;31.01;31.39
16331;BME280;8275;48.206;16.340;2023-07-20T07:19:34;98804.50;;;31.15;31.06
16331;BME280;8275;48.206;16.340;2023-07-20T07:22:04;98804.91;;;31.24;30.72
16331;BME280;8275;48.206;16.340;2023-07-20T07:24:32;98802.06;;;31.32;30.62
16331;BME280;8275;48.206;16.340;2023-07-20T07:27:04;98797.63;;;31.34;30.57
16331;BME280;8275;48.206;16.340;2023-07-20T07:29:32;98797.63;;;31.41;30.65
16331;BME280;8275;48.206;16.340;2023-07-20T07:32:01;98791.19;;;31.44;30.82
16331;BME280;8275;48.206;16.340;2023-07-20T07:34:30;98800.06;;;31.46;31.00
16331;BME280;8275;48.206;16.340;2023-07-20T07:37:02;98796.81;;;31.48;30.90
16331;BME280;8275;48.206;16.340;2023-07-20T07:39:31;98800.47;;;31.52;30.88
16331;BME280;8275;48.206;16.340;2023-07-20T07:42:04;98793.59;;;31.56;30.85
16331;BME280;8275;48.206;16.340;2023-07-20T07:44:32;98787.47;;;31.68;30.54
16331;BME280;8275;48.206;16.340;2023-07-20T07:47:01;98788.69;;;31.74;30.58
16331;BME280;8275;48.206;16.340;2023-07-20T07:49:29;98797.56;;;31.90;30.58
16331;BME280;8275;48.206;16.340;2023-07-20T07:51:58;98801.16;;;32.09;30.40
16331;BME280;8275;48.206;16.340;2023-07-20T07:54:29;98794.22;;;32.20;30.05
16331;BME280;8275;48.206;16.340;2023-07-20T07:56:58;98796.63;;;32.29;30.00
16331;BME280;8275;48.206;16.340;2023-07-20T07:59:28;98795.78;;;32.32;29.49
16331;BME280;8275;48.206;16.340;2023-07-20T08:01:58;98801.44;;;32.35;29.86
16331;BME280;8275;48.206;16.340;2023-07-20T08:04:26;98788.00;;;32.46;29.80
16331;BME280;8275;48.206;16.340;2023-07-20T08:06:55;98787.13;;;32.64;29.60
16331;BME280;8275;48.206;16.340;2023-07-20T08:09:24;98782.16;;;32.82;29.16
16331;BME280;8275;48.206;16.340;2023-07-20T08:11:53;98790.59;;;32.89;29.34
16331;BME280;8275;48.206;16.340;2023-07-20T08:14:21;98797.84;;;32.97;28.54
16331;BME280;8275;48.206;16.340;2023-07-20T08:16:51;98789.66;;;33.09;28.50
16331;BME280;8275;48.206;16.340;2023-07-20T08:19:21;98791.09;;;33.32;27.87
16331;BME280;8275;48.206;16.340;2023-07-20T08:21:51;98782.88;;;33.44;27.93
16331;BME280;8275;48.206;16.340;2023-07-20T08:24:19;98770.25;;;33.52;28.40
16331;BME280;8275;48.206;16.340;2023-07-20T08:26:48;98770.63;;;33.54;27.67
16331;BME280;8275;48.206;16.340;2023-07-20T08:29:17;98779.56;;;33.49;27.89
16331;BME280;8275;48.206;16.340;2023-07-20T08:31:45;98778.44;;;33.40;27.82
16331;BME280;8275;48.206;16.340;2023-07-20T08:34:15;98777.75;;;33.25;27.32
16331;BME280;8275;48.206;16.340;2023-07-20T08:36:57;98783.59;;;33.07;27.46
16331;BME280;8275;48.206;16.340;2023-07-20T08:39:26;98785.31;;;32.94;27.78
16331;BME280;8275;48.206;16.340;2023-07-20T08:41:56;98785.34;;;32.87;28.19
16331;BME280;8275;48.206;16.340;2023-07-20T08:44:27;98783.00;;;32.75;28.16
16331;BME280;8275;48.206;16.340;2023-07-20T08:46:56;98781.84;;;32.66;27.93
16331;BME280;8275;48.206;16.340;2023-07-20T08:49:27;98781.06;;;32.58;28.46
16331;BME280;8275;48.206;16.340;2023-07-20T08:51:56;98787.22;;;32.49;27.99
16331;BME280;8275;48.206;16.340;2023-07-20T08:54:30;98792.94;;;32.35;28.21
16331;BME280;8275;48.206;16.340;2023-07-20T08:57:03;98799.47;;;32.22;28.63
16331;BME280;8275;48.206;16.340;2023-07-20T08:59:32;98800.72;;;32.17;28.67
16331;BME280;8275;48.206;16.340;2023-07-20T09:02:03;98800.72;;;32.17;28.48
16331;BME280;8275;48.206;16.340;2023-07-20T09:04:34;98805.97;;;32.22;28.70
16331;BME280;8275;48.206;16.340;2023-07-20T09:07:04;98795.38;;;32.33;28.43
16331;BME280;8275;48.206;16.340;2023-07-20T09:09:33;98788.44;;;32.45;28.53
16331;BME280;8275;48.206;16.340;2023-07-20T09:12:01;98778.59;;;32.67;28.42
16331;BME280;8275;48.206;16.340;2023-07-20T09:14:31;98777.19;;;32.93;27.92
16331;BME280;8275;48.206;16.340;2023-07-20T09:16:59;98773.00;;;33.15;27.68
16331;BME280;8275;48.206;16.340;2023-07-20T09:19:28;98781.03;;;33.23;27.22
16331;BME280;8275;48.206;16.340;2023-07-20T09:21:58;98783.50;;;33.21;27.46
16331;BME280;8275;48.206;16.340;2023-07-20T09:24:29;98791.63;;;33.16;27.51
16331;BME280;8275;48.206;16.340;2023-07-20T09:26:58;98794.50;;;33.12;27.57
16331;BME280;8275;48.206;16.340;2023-07-20T09:29:31;98800.59;;;33.11;27.15
16331;BME280;8275;48.206;16.340;2023-07-20T09:32:00;98791.69;;;33.12;27.69
16331;BME280;8275;48.206;16.340;2023-07-20T09:34:30;98804.22;;;33.15;27.65
16331;BME280;8275;48.206;16.340;2023-07-20T09:37:03;98802.19;;;33.15;27.71
16331;BME280;8275;48.206;16.340;2023-07-20T09:39:33;98802.22;;;33.12;27.58
16331;BME280;8275;48.206;16.340;2023-07-20T09:42:30;98799.81;;;33.10;27.73
16331;BME280;8275;48.206;16.340;2023-07-20T09:45:02;98792.81;;;33.18;27.23
16331;BME280;8275;48.206;16.340;2023-07-20T09:47:30;98789.09;;;33.29;26.88
16331;BME280;8275;48.206;16.340;2023-07-20T09:50:00;98787.00;;;33.36;27.23
16331;BME280;8275;48.206;16.340;2023-07-20T09:52:34;98796.31;;;33.40;27.52
16331;BME280;8275;48.206;16.340;2023-07-20T09:55:07;98799.53;;;33.39;27.04
16331;BME280;8275;48.206;16.340;2023-07-20T09:57:36;98803.19;;;33.39;27.09
16331;BME280;8275;48.206;16.340;2023-07-20T10:00:08;98789.84;;;33.36;27.12
16331;BME280;8275;48.206;16.340;2023-07-20T10:02:45;98797.63;;;33.29;26.97
16331;BME280;8275;48.206;16.340;2023-07-20T10:05:15;98802.13;;;33.22;26.80
16331;BME280;8275;48.206;16.340;2023-07-20T10:07:48;98794.41;;;33.23;26.60
16331;BME280;8275;48.206;16.340;2023-07-20T10:10:41;98798.03;;;33.27;26.40
16331;BME280;8275;48.206;16.340;2023-07-20T10:13:17;98795.53;;;33.36;26.41
16331;BME280;8275;48.206;16.340;2023-07-20T10:15:50;98784.50;;;33.45;26.08
16331;BME280;8275;48.206;16.340;2023-07-20T10:18:29;98788.16;;;33.42;25.84
16331;BME280;8275;48.206;16.340;2023-07-20T10:21:00;98792.53;;;33.50;25.68
16331;BME280;8275;48.206;16.340;2023-07-20T10:23:34;98781.09;;;33.61;25.52
16331;BME280;8275;48.206;16.340;2023-07-20T10:26:03;98781.38;;;33.73;25.58
16331;BME280;8275;48.206;16.340;2023-07-20T10:28:32;98782.53;;;33.79;24.86
16331;BME280;8275;48.206;16.340;2023-07-20T10:31:01;98771.84;;;33.90;25.23
16331;BME280;8275;48.206;16.340;2023-07-20T10:33:31;98773.78;;;33.97;25.11
16331;BME280;8275;48.206;16.340;2023-07-20T10:36:02;98774.50;;;34.08;24.93
16331;BME280;8275;48.206;16.340;2023-07-20T10:38:40;98763.84;;;34.16;24.94
16331;BME280;8275;48.206;16.340;2023-07-20T10:41:19;98782.84;;;34.22;24.45
16331;BME280;8275;48.206;16.340;2023-07-20T10:43:49;98780.91;;;34.16;24.08
16331;BME280;8275;48.206;16.340;2023-07-20T10:46:50;98774.59;;;33.98;24.38
16331;BME280;8275;48.206;16.340;2023-07-20T10:49:27;98779.47;;;33.97;24.53
16331;BME280;8275;48.206;16.340;2023-07-20T10:51:59;98779.72;;;34.13;24.19
16331;BME280;8275;48.206;16.340;2023-07-20T10:54:50;98774.47;;;34.42;24.76
16331;BME280;8275;48.206;16.340;2023-07-20T10:57:30;98756.28;;;34.89;24.19
16331;BME280;8275;48.206;16.340;2023-07-20T11:00:10;98764.41;;;35.41;23.70
16331;BME280;8275;48.206;16.340;2023-07-20T11:02:44;98773.31;;;35.85;23.18
16331;BME280;8275;48.206;16.340;2023-07-20T11:05:38;98760.34;;;36.24;21.93
16331;BME280;8275;48.206;16.340;2023-07-20T11:08:11;98750.50;;;36.64;20.78
16331;BME280;8275;48.206;16.340;2023-07-20T11:10:41;98745.09;;;36.86;20.46
16331;BME280;8275;48.206;16.340;2023-07-20T11:13:23;98743.44;;;37.20;20.95
16331;BME280;8275;48.206;16.340;2023-07-20T11:16:04;98741.34;;;37.53;20.90
16331;BME280;8275;48.206;16.340;2023-07-20T11:18:34;98744.66;;;37.97;20.08
16331;BME280;8275;48.206;16.340;2023-07-20T11:21:09;98733.44;;;38.31;18.83
16331;BME280;8275;48.206;16.340;2023-07-20T11:23:39;98736.53;;;38.61;19.16
16331;BME280;8275;48.206;16.340;2023-07-20T11:26:10;98743.66;;;38.95;18.80
16331;BME280;8275;48.206;16.340;2023-07-20T11:28:39;98734.69;;;39.30;18.67
16331;BME280;8275;48.206;16.340;2023-07-20T11:31:08;98743.69;;;39.67;18.58
16331;BME280;8275;48.206;16.340;2023-07-20T11:33:36;98744.09;;;39.99;17.95
16331;BME280;8275;48.206;16.340;2023-07-20T11:36:06;98730.63;;;40.31;17.14
16331;BME280;8275;48.206;16.340;2023-07-20T11:38:42;98733.94;;;40.51;17.14
16331;BME280;8275;48.206;16.340;2023-07-20T11:41:13;98737.44;;;40.77;17.31
16331;BME280;8275;48.206;16.340;2023-07-20T11:43:41;98738.69;;;41.06;15.88
16331;BME280;8275;48.206;16.340;2023-07-20T11:46:10;98723.50;;;41.06;16.04
16331;BME280;8275;48.206;16.340;2023-07-20T11:48:39;98742.69;;;41.09;15.66
16331;BME280;8275;48.206;16.340;2023-07-20T11:51:14;98723.69;;;41.20;16.03
16331;BME280;8275;48.206;16.340;2023-07-20T11:53:44;98738.63;;;41.28;15.88
16331;BME280;8275;48.206;16.340;2023-07-20T11:56:15;98747.09;;;41.41;15.99
16331;BME280;8275;48.206;16.340;2023-07-20T11:58:44;98733.22;;;41.66;15.35
16331;BME280;8275;48.206;16.340;2023-07-20T12:01:13;98735.81;;;41.73;15.71
16331;BME280;8275;48.206;16.340;2023-07-20T12:03:43;98740.44;;;41.71;15.58
16331;BME280;8275;48.206;16.340;2023-07-20T12:06:13;98730.16;;;41.61;15.55
16331;BME280;8275;48.206;16.340;2023-07-20T12:08:43;98729.41;;;41.69;14.85
16331;BME280;8275;48.206;16.340;2023-07-20T12:11:12;98733.22;;;42.03;15.26
16331;BME280;8275;48.206;16.340;2023-07-20T12:13:43;98725.81;;;42.38;14.70
16331;BME280;8275;48.206;16.340;2023-07-20T12:16:14;98717.03;;;42.83;14.46
16331;BME280;8275;48.206;16.340;2023-07-20T12:18:44;98720.03;;;42.98;14.33
16331;BME280;8275;48.206;16.340;2023-07-20T12:21:13;98728.28;;;43.14;13.45
16331;BME280;8275;48.206;16.340;2023-07-20T12:23:45;98721.34;;;43.20;13.34
16331;BME280;8275;48.206;16.340;2023-07-20T12:26:14;98718.13;;;43.27;13.00
16331;BME280;8275;48.206;16.340;2023-07-20T12:28:44;98718.47;;;43.20;13.23
16331;BME280;8275;48.206;16.340;2023-07-20T12:31:13;98707.03;;;43.35;13.81
16331;BME280;8275;48.206;16.340;2023-07-20T12:33:42;98706.31;;;43.64;12.87
16331;BME280;8275;48.206;16.340;2023-07-20T12:36:11;98713.56;;;43.83;13.47
16331;BME280;8275;48.206;16.340;2023-07-20T12:38:39;98714.91;;;44.11;13.09
16331;BME280;8275;48.206;16.340;2023-07-20T12:41:11;98702.19;;;44.32;12.36
16331;BME280;8275;48.206;16.340;2023-07-20T12:43:41;98700.69;;;44.51;12.09
16331;BME280;8275;48.206;16.340;2023-07-20T12:46:13;98707.13;;;44.76;12.41
16331;BME280;8275;48.206;16.340;2023-07-20T12:48:41;98705.53;;;44.89;11.23
16331;BME280;8275;48.206;16.340;2023-07-20T12:51:14;98696.78;;;44.84;11.24
16331;BME280;8275;48.206;16.340;2023-07-20T12:53:43;98711.13;;;44.63;11.15
16331;BME280;8275;48.206;16.340;2023-07-20T12:56:12;98693.53;;;44.32;11.61
16331;BME280;8275;48.206;16.340;2023-07-20T12:58:44;98698.69;;;44.14;10.84
16331;BME280;8275;48.206;16.340;2023-07-20T13:01:14;98706.28;;;43.87;11.60
16331;BME280;8275;48.206;16.340;2023-07-20T13:03:43;98701.22;;;43.82;11.26
16331;BME280;8275;48.206;16.340;2023-07-20T13:06:14;98696.16;;;43.92;11.74
16331;BME280;8275;48.206;16.340;2023-07-20T13:08:46;98689.94;;;44.23;11.36
16331;BME280;8275;48.206;16.340;2023-07-20T13:11:14;98686.09;;;44.75;12.24
16331;BME280;8275;48.206;16.340;2023-07-20T13:13:43;98689.56;;;45.28;11.68
16331;BME280;8275;48.206;16.340;2023-07-20T13:16:13;98695.28;;;45.83;10.66
16331;BME280;8275;48.206;16.340;2023-07-20T13:18:42;98697.03;;;45.96;10.34
16331;BME280;8275;48.206;16.340;2023-07-20T13:21:10;98694.31;;;45.92;10.22
16331;BME280;8275;48.206;16.340;2023-07-20T13:23:39;98708.38;;;45.79;10.35